Norris City, Illinois
Current Conditions -  °F | °C
As of 8:15 AM on Saturday 25 Oct 2014 (Local Time) from KCUL Reporting Station
Broken Clouds Broken Clouds  
Wind Chill: 59°   Ceiling: 4700
Heat Index: 59°   Visibility: 7mi
Dew Point: 58°   Wind: 0mph
Humidity: 96%   Direction: NA
Pressure: 30.02"   Gusts: NA
Location:  37.98°N, 88.33°W
Report Text: KCUL 251315Z AUTO 00000KT 7SM BKN047 15/14 A3002 RMK AO2 T01490142
Loading
Personal Weather Stations






























Interactive Weather Map
Tropical Storm Tracking
New forecast layout! Learn more

10-Day Weather Forecast

Advertisements
Track Severe Weather on mobile